sensor_id;sensor_type;location;lat;lon;timestamp;temperature;humidity
16243;DHT22;11719;51.052;6.982;2023-06-26T00:01:30;23.20;99.90
16243;DHT22;11719;51.052;6.982;2023-06-26T00:04:00;23.20;99.90
16243;DHT22;11719;51.052;6.982;2023-06-26T00:06:26;23.20;99.90
16243;DHT22;11719;51.052;6.982;2023-06-26T00:08:53;23.20;99.90
16243;DHT22;11719;51.052;6.982;2023-06-26T00:11:20;23.20;99.90
16243;DHT22;11719;51.052;6.982;2023-06-26T00:13:47;23.20;99.90
16243;DHT22;11719;51.052;6.982;2023-06-26T00:16:13;23.20;99.90
16243;DHT22;11719;51.052;6.982;2023-06-26T00:18:39;23.10;99.90
16243;DHT22;11719;51.052;6.982;2023-06-26T00:21:05;23.10;99.90
16243;DHT22;11719;51.052;6.982;2023-06-26T00:23:31;23.10;99.90
16243;DHT22;11719;51.052;6.982;2023-06-26T00:25:58;23.10;99.90
16243;DHT22;11719;51.052;6.982;2023-06-26T00:28:24;23.10;99.90
16243;DHT22;11719;51.052;6.982;2023-06-26T00:30:50;23.10;99.90
16243;DHT22;11719;51.052;6.982;2023-06-26T00:33:15;23.10;99.90
16243;DHT22;11719;51.052;6.982;2023-06-26T00:35:41;23.10;99.90
16243;DHT22;11719;51.052;6.982;2023-06-26T00:38:07;23.10;99.90
16243;DHT22;11719;51.052;6.982;2023-06-26T00:40:33;23.10;99.90
16243;DHT22;11719;51.052;6.982;2023-06-26T00:42:59;23.10;99.90
16243;DHT22;11719;51.052;6.982;2023-06-26T00:45:24;23.10;99.90
16243;DHT22;11719;51.052;6.982;2023-06-26T00:47:50;23.20;99.90
16243;DHT22;11719;51.052;6.982;2023-06-26T00:50:16;23.10;99.90
16243;DHT22;11719;51.052;6.982;2023-06-26T00:52:43;23.10;99.90
16243;DHT22;11719;51.052;6.982;2023-06-26T00:55:09;23.20;99.90
16243;DHT22;11719;51.052;6.982;2023-06-26T00:57:35;23.20;99.90
16243;DHT22;11719;51.052;6.982;2023-06-26T01:00:01;23.20;99.90
16243;DHT22;11719;51.052;6.982;2023-06-26T01:02:29;23.10;99.90
16243;DHT22;11719;51.052;6.982;2023-06-26T01:05:01;23.20;99.90
16243;DHT22;11719;51.052;6.982;2023-06-26T01:07:32;23.20;99.90
16243;DHT22;11719;51.052;6.982;2023-06-26T01:10:03;23.20;99.90
16243;DHT22;11719;51.052;6.982;2023-06-26T01:12:30;23.20;99.90
16243;DHT22;11719;51.052;6.982;2023-06-26T01:14:58;23.20;99.90
16243;DHT22;11719;51.052;6.982;2023-06-26T01:17:24;23.20;99.90
16243;DHT22;11719;51.052;6.982;2023-06-26T01:19:59;23.20;99.90
16243;DHT22;11719;51.052;6.982;2023-06-26T01:25:59;23.20;99.90
16243;DHT22;11719;51.052;6.982;2023-06-26T01:28:45;23.20;99.90
16243;DHT22;11719;51.052;6.982;2023-06-26T01:31:13;23.20;99.90
16243;DHT22;11719;51.052;6.982;2023-06-26T01:33:40;23.20;99.90
16243;DHT22;11719;51.052;6.982;2023-06-26T01:36:06;23.20;99.90
16243;DHT22;11719;51.052;6.982;2023-06-26T01:38:33;23.20;99.90
16243;DHT22;11719;51.052;6.982;2023-06-26T01:41:00;23.20;99.90
16243;DHT22;11719;51.052;6.982;2023-06-26T01:43:50;23.20;99.90
16243;DHT22;11719;51.052;6.982;2023-06-26T01:46:39;23.20;99.90
16243;DHT22;11719;51.052;6.982;2023-06-26T01:49:37;23.20;99.90
16243;DHT22;11719;51.052;6.982;2023-06-26T01:52:53;23.10;99.90
16243;DHT22;11719;51.052;6.982;2023-06-26T01:55:40;23.10;99.90
16243;DHT22;11719;51.052;6.982;2023-06-26T01:58:15;23.10;99.90
16243;DHT22;11719;51.052;6.982;2023-06-26T02:00:43;23.10;99.90
16243;DHT22;11719;51.052;6.982;2023-06-26T02:03:10;23.10;99.90
16243;DHT22;11719;51.052;6.982;2023-06-26T02:05:36;23.10;99.90
16243;DHT22;11719;51.052;6.982;2023-06-26T02:08:01;23.10;99.90
16243;DHT22;11719;51.052;6.982;2023-06-26T02:10:28;23.10;99.90
16243;DHT22;11719;51.052;6.982;2023-06-26T02:12:54;23.10;99.90
16243;DHT22;11719;51.052;6.982;2023-06-26T02:15:20;23.10;99.90
16243;DHT22;11719;51.052;6.982;2023-06-26T02:17:45;23.10;99.90
16243;DHT22;11719;51.052;6.982;2023-06-26T02:20:14;23.10;99.90
16243;DHT22;11719;51.052;6.982;2023-06-26T02:22:41;23.10;99.90
16243;DHT22;11719;51.052;6.982;2023-06-26T02:25:08;23.10;99.90
16243;DHT22;11719;51.052;6.982;2023-06-26T02:27:38;23.10;99.90
16243;DHT22;11719;51.052;6.982;2023-06-26T02:30:04;23.10;99.90
16243;DHT22;11719;51.052;6.982;2023-06-26T02:32:30;23.10;99.90
16243;DHT22;11719;51.052;6.982;2023-06-26T02:34:56;23.10;99.90
16243;DHT22;11719;51.052;6.982;2023-06-26T02:37:22;23.10;99.90
16243;DHT22;11719;51.052;6.982;2023-06-26T02:39:48;23.10;99.90
16243;DHT22;11719;51.052;6.982;2023-06-26T02:42:14;23.10;99.90
16243;DHT22;11719;51.052;6.982;2023-06-26T02:44:40;23.10;99.90
16243;DHT22;11719;51.052;6.982;2023-06-26T02:47:06;23.10;99.90
16243;DHT22;11719;51.052;6.982;2023-06-26T02:49:32;23.10;99.90
16243;DHT22;11719;51.052;6.982;2023-06-26T02:51:57;23.10;99.90
16243;DHT22;11719;51.052;6.982;2023-06-26T02:54:23;23.10;99.90
16243;DHT22;11719;51.052;6.982;2023-06-26T02:56:49;23.10;99.90
16243;DHT22;11719;51.052;6.982;2023-06-26T02:59:15;23.10;99.90
16243;DHT22;11719;51.052;6.982;2023-06-26T03:01:40;23.10;99.90
16243;DHT22;11719;51.052;6.982;2023-06-26T03:04:06;23.10;99.90
16243;DHT22;11719;51.052;6.982;2023-06-26T03:06:32;23.10;99.90
16243;DHT22;11719;51.052;6.982;2023-06-26T03:08:58;23.10;99.90
16243;DHT22;11719;51.052;6.982;2023-06-26T03:11:24;23.10;99.90
16243;DHT22;11719;51.052;6.982;2023-06-26T03:13:49;23.10;99.90
16243;DHT22;11719;51.052;6.982;2023-06-26T03:16:15;23.00;99.90
16243;DHT22;11719;51.052;6.982;2023-06-26T03:18:41;23.00;99.90
16243;DHT22;11719;51.052;6.982;2023-06-26T03:21:08;23.00;99.90
16243;DHT22;11719;51.052;6.982;2023-06-26T03:23:34;23.00;99.90
16243;DHT22;11719;51.052;6.982;2023-06-26T03:26:00;23.00;99.90
16243;DHT22;11719;51.052;6.982;2023-06-26T03:28:26;23.00;99.90
16243;DHT22;11719;51.052;6.982;2023-06-26T03:30:52;23.00;99.90
16243;DHT22;11719;51.052;6.982;2023-06-26T03:33:17;23.00;99.90
16243;DHT22;11719;51.052;6.982;2023-06-26T03:35:43;23.00;99.90
16243;DHT22;11719;51.052;6.982;2023-06-26T03:38:10;23.00;99.90
16243;DHT22;11719;51.052;6.982;2023-06-26T03:40:35;22.90;99.90
16243;DHT22;11719;51.052;6.982;2023-06-26T03:43:02;22.90;99.90
16243;DHT22;11719;51.052;6.982;2023-06-26T03:45:28;23.00;99.90
16243;DHT22;11719;51.052;6.982;2023-06-26T03:47:54;23.00;99.90
16243;DHT22;11719;51.052;6.982;2023-06-26T03:50:20;23.00;99.90
16243;DHT22;11719;51.052;6.982;2023-06-26T03:52:46;23.00;99.90
16243;DHT22;11719;51.052;6.982;2023-06-26T03:55:12;23.00;99.90
16243;DHT22;11719;51.052;6.982;2023-06-26T03:57:38;23.00;99.90
16243;DHT22;11719;51.052;6.982;2023-06-26T04:00:04;23.00;99.90
16243;DHT22;11719;51.052;6.982;2023-06-26T04:02:35;23.10;99.90
16243;DHT22;11719;51.052;6.982;2023-06-26T04:05:01;23.10;99.90
16243;DHT22;11719;51.052;6.982;2023-06-26T04:07:29;23.10;99.90
16243;DHT22;11719;51.052;6.982;2023-06-26T04:09:55;23.10;99.90
16243;DHT22;11719;51.052;6.982;2023-06-26T04:12:20;23.10;99.90
16243;DHT22;11719;51.052;6.982;2023-06-26T04:14:46;23.10;99.90
16243;DHT22;11719;51.052;6.982;2023-06-26T04:17:12;23.10;99.90
16243;DHT22;11719;51.052;6.982;2023-06-26T04:19:38;23.10;99.90
16243;DHT22;11719;51.052;6.982;2023-06-26T04:22:04;23.10;99.90
16243;DHT22;11719;51.052;6.982;2023-06-26T04:24:30;23.10;99.90
16243;DHT22;11719;51.052;6.982;2023-06-26T04:26:55;23.10;99.90
16243;DHT22;11719;51.052;6.982;2023-06-26T04:29:26;23.20;99.90
16243;DHT22;11719;51.052;6.982;2023-06-26T04:31:52;23.20;99.90
16243;DHT22;11719;51.052;6.982;2023-06-26T04:34:26;23.20;99.90
16243;DHT22;11719;51.052;6.982;2023-06-26T04:36:53;23.20;99.90
16243;DHT22;11719;51.052;6.982;2023-06-26T04:39:19;23.20;99.90
16243;DHT22;11719;51.052;6.982;2023-06-26T04:41:45;23.20;99.90
16243;DHT22;11719;51.052;6.982;2023-06-26T04:44:11;23.20;99.90
16243;DHT22;11719;51.052;6.982;2023-06-26T04:46:38;23.20;99.90
16243;DHT22;11719;51.052;6.982;2023-06-26T04:49:09;23.10;99.90
16243;DHT22;11719;51.052;6.982;2023-06-26T04:51:36;23.20;99.90
16243;DHT22;11719;51.052;6.982;2023-06-26T04:54:12;23.10;99.90
16243;DHT22;11719;51.052;6.982;2023-06-26T04:56:38;23.10;99.90
16243;DHT22;11719;51.052;6.982;2023-06-26T04:59:07;23.10;99.90
16243;DHT22;11719;51.052;6.982;2023-06-26T05:01:38;23.10;99.90
16243;DHT22;11719;51.052;6.982;2023-06-26T05:04:05;23.10;99.90
16243;DHT22;11719;51.052;6.982;2023-06-26T05:06:31;23.10;99.90
16243;DHT22;11719;51.052;6.982;2023-06-26T05:08:57;23.10;99.90
16243;DHT22;11719;51.052;6.982;2023-06-26T05:11:24;23.10;99.90
16243;DHT22;11719;51.052;6.982;2023-06-26T05:13:50;23.10;99.90
16243;DHT22;11719;51.052;6.982;2023-06-26T05:16:16;23.10;99.90
16243;DHT22;11719;51.052;6.982;2023-06-26T05:18:42;23.10;99.90
16243;DHT22;11719;51.052;6.982;2023-06-26T05:21:08;23.10;99.90
16243;DHT22;11719;51.052;6.982;2023-06-26T05:23:34;23.10;99.90
16243;DHT22;11719;51.052;6.982;2023-06-26T05:26:01;23.10;99.90
16243;DHT22;11719;51.052;6.982;2023-06-26T05:28:28;23.10;99.90
16243;DHT22;11719;51.052;6.982;2023-06-26T05:30:57;23.10;99.90
16243;DHT22;11719;51.052;6.982;2023-06-26T05:33:24;23.10;99.90
16243;DHT22;11719;51.052;6.982;2023-06-26T05:35:53;23.10;99.90
16243;DHT22;11719;51.052;6.982;2023-06-26T05:38:20;23.10;99.90
16243;DHT22;11719;51.052;6.982;2023-06-26T05:40:47;23.10;99.90
16243;DHT22;11719;51.052;6.982;2023-06-26T05:43:13;23.10;99.90
16243;DHT22;11719;51.052;6.982;2023-06-26T05:45:40;23.10;99.90
16243;DHT22;11719;51.052;6.982;2023-06-26T05:48:06;23.10;99.90
16243;DHT22;11719;51.052;6.982;2023-06-26T05:50:32;23.00;99.90
16243;DHT22;11719;51.052;6.982;2023-06-26T05:52:58;23.00;99.90
16243;DHT22;11719;51.052;6.982;2023-06-26T05:55:25;23.00;99.90
16243;DHT22;11719;51.052;6.982;2023-06-26T05:57:51;23.00;99.90
16243;DHT22;11719;51.052;6.982;2023-06-26T06:00:18;23.00;99.90
16243;DHT22;11719;51.052;6.982;2023-06-26T06:02:45;23.00;99.90
16243;DHT22;11719;51.052;6.982;2023-06-26T06:05:11;23.00;99.90
16243;DHT22;11719;51.052;6.982;2023-06-26T06:07:37;23.00;99.90
16243;DHT22;11719;51.052;6.982;2023-06-26T06:10:03;23.00;99.90
16243;DHT22;11719;51.052;6.982;2023-06-26T06:12:29;23.00;99.90
16243;DHT22;11719;51.052;6.982;2023-06-26T06:14:56;23.00;99.90
16243;DHT22;11719;51.052;6.982;2023-06-26T06:17:22;23.00;99.90
16243;DHT22;11719;51.052;6.982;2023-06-26T06:19:47;23.00;99.90
16243;DHT22;11719;51.052;6.982;2023-06-26T06:22:13;22.90;99.90
16243;DHT22;11719;51.052;6.982;2023-06-26T06:24:39;23.00;99.90
16243;DHT22;11719;51.052;6.982;2023-06-26T06:27:05;22.90;99.90
16243;DHT22;11719;51.052;6.982;2023-06-26T06:29:31;22.90;99.90
16243;DHT22;11719;51.052;6.982;2023-06-26T06:31:57;22.90;99.90
16243;DHT22;11719;51.052;6.982;2023-06-26T06:34:23;22.90;99.90
16243;DHT22;11719;51.052;6.982;2023-06-26T06:36:49;22.90;99.90
16243;DHT22;11719;51.052;6.982;2023-06-26T06:39:15;22.90;99.90
16243;DHT22;11719;51.052;6.982;2023-06-26T06:41:41;22.90;99.90
16243;DHT22;11719;51.052;6.982;2023-06-26T06:44:07;22.90;99.90
16243;DHT22;11719;51.052;6.982;2023-06-26T06:46:33;22.90;99.90
16243;DHT22;11719;51.052;6.982;2023-06-26T06:48:59;22.90;99.90
16243;DHT22;11719;51.052;6.982;2023-06-26T06:51:25;22.90;99.90
16243;DHT22;11719;51.052;6.982;2023-06-26T06:53:51;22.90;99.90
16243;DHT22;11719;51.052;6.982;2023-06-26T06:56:17;22.80;99.90
16243;DHT22;11719;51.052;6.982;2023-06-26T06:58:42;22.80;99.90
16243;DHT22;11719;51.052;6.982;2023-06-26T07:01:11;22.80;99.90
16243;DHT22;11719;51.052;6.982;2023-06-26T07:03:38;22.80;99.90
16243;DHT22;11719;51.052;6.982;2023-06-26T07:06:04;22.70;99.90
16243;DHT22;11719;51.052;6.982;2023-06-26T07:08:30;22.80;99.90
16243;DHT22;11719;51.052;6.982;2023-06-26T07:10:56;22.80;99.90
16243;DHT22;11719;51.052;6.982;2023-06-26T07:13:23;22.80;99.90
16243;DHT22;11719;51.052;6.982;2023-06-26T07:15:49;22.80;99.90
16243;DHT22;11719;51.052;6.982;2023-06-26T07:18:15;22.80;99.90
16243;DHT22;11719;51.052;6.982;2023-06-26T07:20:41;22.80;99.90
16243;DHT22;11719;51.052;6.982;2023-06-26T07:23:07;22.80;99.90
16243;DHT22;11719;51.052;6.982;2023-06-26T07:25:33;22.80;99.90
16243;DHT22;11719;51.052;6.982;2023-06-26T07:27:59;22.80;99.90
16243;DHT22;11719;51.052;6.982;2023-06-26T07:30:25;22.90;99.90
16243;DHT22;11719;51.052;6.982;2023-06-26T07:32:51;22.90;99.90
16243;DHT22;11719;51.052;6.982;2023-06-26T07:35:17;23.00;99.90
16243;DHT22;11719;51.052;6.982;2023-06-26T07:37:43;23.00;99.90
16243;DHT22;11719;51.052;6.982;2023-06-26T07:40:09;23.00;99.90
16243;DHT22;11719;51.052;6.982;2023-06-26T07:42:36;23.00;99.90
16243;DHT22;11719;51.052;6.982;2023-06-26T07:45:02;23.00;99.90
16243;DHT22;11719;51.052;6.982;2023-06-26T07:47:35;23.10;99.90
16243;DHT22;11719;51.052;6.982;2023-06-26T07:50:02;23.10;99.90
16243;DHT22;11719;51.052;6.982;2023-06-26T07:52:29;23.10;99.90
16243;DHT22;11719;51.052;6.982;2023-06-26T07:54:58;23.10;99.90
16243;DHT22;11719;51.052;6.982;2023-06-26T07:57:24;23.10;99.90
16243;DHT22;11719;51.052;6.982;2023-06-26T07:59:50;23.10;99.90
16243;DHT22;11719;51.052;6.982;2023-06-26T08:02:16;23.10;99.90
16243;DHT22;11719;51.052;6.982;2023-06-26T08:04:44;23.10;99.90
16243;DHT22;11719;51.052;6.982;2023-06-26T08:07:09;23.10;99.90
16243;DHT22;11719;51.052;6.982;2023-06-26T08:09:35;23.10;99.90
16243;DHT22;11719;51.052;6.982;2023-06-26T08:12:01;23.10;99.90
16243;DHT22;11719;51.052;6.982;2023-06-26T08:14:27;23.20;99.90
16243;DHT22;11719;51.052;6.982;2023-06-26T08:16:53;23.20;99.90
16243;DHT22;11719;51.052;6.982;2023-06-26T08:19:19;23.20;99.90
16243;DHT22;11719;51.052;6.982;2023-06-26T08:21:45;23.30;99.90
16243;DHT22;11719;51.052;6.982;2023-06-26T08:24:12;23.30;99.90
16243;DHT22;11719;51.052;6.982;2023-06-26T08:26:47;23.30;99.90
16243;DHT22;11719;51.052;6.982;2023-06-26T08:29:13;23.30;99.90
16243;DHT22;11719;51.052;6.982;2023-06-26T08:31:41;23.30;99.90
16243;DHT22;11719;51.052;6.982;2023-06-26T08:34:08;23.30;99.90
16243;DHT22;11719;51.052;6.982;2023-06-26T08:36:33;23.30;99.90
16243;DHT22;11719;51.052;6.982;2023-06-26T08:38:59;23.30;99.90
16243;DHT22;11719;51.052;6.982;2023-06-26T08:41:25;23.30;99.90
16243;DHT22;11719;51.052;6.982;2023-06-26T08:43:51;23.30;99.90
16243;DHT22;11719;51.052;6.982;2023-06-26T08:46:18;23.40;99.90
16243;DHT22;11719;51.052;6.982;2023-06-26T08:49:00;23.40;99.90
16243;DHT22;11719;51.052;6.982;2023-06-26T08:51:28;23.40;99.90
16243;DHT22;11719;51.052;6.982;2023-06-26T08:54:01;23.40;99.90
16243;DHT22;11719;51.052;6.982;2023-06-26T08:56:32;23.40;99.90
16243;DHT22;11719;51.052;6.982;2023-06-26T08:59:02;23.40;99.90
16243;DHT22;11719;51.052;6.982;2023-06-26T09:01:28;23.40;99.90
16243;DHT22;11719;51.052;6.982;2023-06-26T09:03:54;23.40;99.90
16243;DHT22;11719;51.052;6.982;2023-06-26T09:06:19;23.40;99.90
16243;DHT22;11719;51.052;6.982;2023-06-26T09:08:46;23.40;99.90
16243;DHT22;11719;51.052;6.982;2023-06-26T09:11:12;23.40;99.90
16243;DHT22;11719;51.052;6.982;2023-06-26T09:13:38;23.40;99.90
16243;DHT22;11719;51.052;6.982;2023-06-26T09:16:06;23.40;99.90
16243;DHT22;11719;51.052;6.982;2023-06-26T09:18:33;23.40;99.90
16243;DHT22;11719;51.052;6.982;2023-06-26T09:20:59;23.40;99.90
16243;DHT22;11719;51.052;6.982;2023-06-26T09:23:26;23.40;99.90
16243;DHT22;11719;51.052;6.982;2023-06-26T09:25:52;23.40;99.90
16243;DHT22;11719;51.052;6.982;2023-06-26T09:28:19;23.30;99.90
16243;DHT22;11719;51.052;6.982;2023-06-26T09:30:45;23.40;99.90
16243;DHT22;11719;51.052;6.982;2023-06-26T09:33:18;23.40;99.90
16243;DHT22;11719;51.052;6.982;2023-06-26T09:35:45;23.40;99.90
16243;DHT22;11719;51.052;6.982;2023-06-26T09:38:14;23.50;99.90
16243;DHT22;11719;51.052;6.982;2023-06-26T09:40:43;23.50;99.90
16243;DHT22;11719;51.052;6.982;2023-06-26T09:43:12;23.50;99.90
16243;DHT22;11719;51.052;6.982;2023-06-26T09:45:40;23.50;99.90
16243;DHT22;11719;51.052;6.982;2023-06-26T09:48:06;23.50;99.90
16243;DHT22;11719;51.052;6.982;2023-06-26T09:50:37;23.50;99.90
16243;DHT22;11719;51.052;6.982;2023-06-26T09:53:13;23.50;99.90
16243;DHT22;11719;51.052;6.982;2023-06-26T09:55:40;23.60;99.90
16243;DHT22;11719;51.052;6.982;2023-06-26T09:58:10;23.60;99.90
16243;DHT22;11719;51.052;6.982;2023-06-26T10:00:40;23.60;99.90
16243;DHT22;11719;51.052;6.982;2023-06-26T10:03:07;23.60;99.90
16243;DHT22;11719;51.052;6.982;2023-06-26T10:05:33;23.60;99.90
16243;DHT22;11719;51.052;6.982;2023-06-26T10:08:01;23.70;99.90
16243;DHT22;11719;51.052;6.982;2023-06-26T10:10:28;23.70;99.90
16243;DHT22;11719;51.052;6.982;2023-06-26T10:12:59;23.80;99.90
16243;DHT22;11719;51.052;6.982;2023-06-26T10:15:29;23.80;99.90
16243;DHT22;11719;51.052;6.982;2023-06-26T10:17:56;23.80;99.90
16243;DHT22;11719;51.052;6.982;2023-06-26T10:20:23;23.80;99.90
16243;DHT22;11719;51.052;6.982;2023-06-26T10:22:51;23.80;99.90
16243;DHT22;11719;51.052;6.982;2023-06-26T10:25:19;23.80;99.90
16243;DHT22;11719;51.052;6.982;2023-06-26T10:27:49;23.90;99.90
16243;DHT22;11719;51.052;6.982;2023-06-26T10:30:20;23.80;99.90
16243;DHT22;11719;51.052;6.982;2023-06-26T10:32:59;23.90;99.90
16243;DHT22;11719;51.052;6.982;2023-06-26T10:35:25;23.90;99.90
16243;DHT22;11719;51.052;6.982;2023-06-26T10:38:00;23.90;99.90
16243;DHT22;11719;51.052;6.982;2023-06-26T10:40:28;23.90;99.90
16243;DHT22;11719;51.052;6.982;2023-06-26T10:43:07;23.90;99.90
16243;DHT22;11719;51.052;6.982;2023-06-26T10:45:34;23.90;99.90
16243;DHT22;11719;51.052;6.982;2023-06-26T10:48:01;23.90;99.90
16243;DHT22;11719;51.052;6.982;2023-06-26T10:50:28;24.00;99.90
16243;DHT22;11719;51.052;6.982;2023-06-26T10:53:15;24.00;99.90
16243;DHT22;11719;51.052;6.982;2023-06-26T10:56:05;24.00;99.90
16243;DHT22;11719;51.052;6.982;2023-06-26T10:58:40;24.00;99.90
16243;DHT22;11719;51.052;6.982;2023-06-26T11:01:17;24.00;99.90
16243;DHT22;11719;51.052;6.982;2023-06-26T11:03:46;24.00;99.90
16243;DHT22;11719;51.052;6.982;2023-06-26T11:06:27;24.00;99.90
16243;DHT22;11719;51.052;6.982;2023-06-26T11:14:25;24.20;99.90
16243;DHT22;11719;51.052;6.982;2023-06-26T11:16:57;24.30;99.90
16243;DHT22;11719;51.052;6.982;2023-06-26T11:19:26;24.30;99.90
16243;DHT22;11719;51.052;6.982;2023-06-26T11:21:58;24.30;99.90
16243;DHT22;11719;51.052;6.982;2023-06-26T11:24:25;24.30;99.90
16243;DHT22;11719;51.052;6.982;2023-06-26T11:26:52;24.30;99.90
16243;DHT22;11719;51.052;6.982;2023-06-26T11:29:22;24.30;99.90
16243;DHT22;11719;51.052;6.982;2023-06-26T11:31:58;24.30;99.90
16243;DHT22;11719;51.052;6.982;2023-06-26T11:34:29;24.20;99.90
16243;DHT22;11719;51.052;6.982;2023-06-26T11:36:56;24.30;99.90
16243;DHT22;11719;51.052;6.982;2023-06-26T11:39:22;24.20;99.90
16243;DHT22;11719;51.052;6.982;2023-06-26T11:41:48;24.20;99.90
16243;DHT22;11719;51.052;6.982;2023-06-26T11:44:14;24.20;99.90
16243;DHT22;11719;51.052;6.982;2023-06-26T11:46:45;24.20;99.90
16243;DHT22;11719;51.052;6.982;2023-06-26T11:49:11;24.20;99.90
16243;DHT22;11719;51.052;6.982;2023-06-26T11:51:37;24.20;99.90
16243;DHT22;11719;51.052;6.982;2023-06-26T11:54:03;24.10;99.90
16243;DHT22;11719;51.052;6.982;2023-06-26T11:56:29;24.10;99.90
16243;DHT22;11719;51.052;6.982;2023-06-26T11:59:09;24.20;99.90
16243;DHT22;11719;51.052;6.982;2023-06-26T12:01:44;24.30;99.90
16243;DHT22;11719;51.052;6.982;2023-06-26T12:04:12;24.30;99.90
16243;DHT22;11719;51.052;6.982;2023-06-26T12:06:40;24.30;99.90
16243;DHT22;11719;51.052;6.982;2023-06-26T12:09:09;24.20;99.00
16243;DHT22;11719;51.052;6.982;2023-06-26T12:11:41;24.20;98.80
16243;DHT22;11719;51.052;6.982;2023-06-26T12:14:09;24.20;99.90
16243;DHT22;11719;51.052;6.982;2023-06-26T12:16:37;24.30;98.80
16243;DHT22;11719;51.052;6.982;2023-06-26T12:19:06;24.40;99.90
16243;DHT22;11719;51.052;6.982;2023-06-26T12:24:16;24.40;99.30
16243;DHT22;11719;51.052;6.982;2023-06-26T12:26:50;24.40;99.70
16243;DHT22;11719;51.052;6.982;2023-06-26T12:29:32;24.40;99.90
16243;DHT22;11719;51.052;6.982;2023-06-26T12:31:59;24.30;99.90
16243;DHT22;11719;51.052;6.982;2023-06-26T12:34:34;24.30;99.90
16243;DHT22;11719;51.052;6.982;2023-06-26T12:37:06;24.30;99.80
16243;DHT22;11719;51.052;6.982;2023-06-26T12:39:53;24.40;99.60
16243;DHT22;11719;51.052;6.982;2023-06-26T12:42:24;24.40;99.90
16243;DHT22;11719;51.052;6.982;2023-06-26T12:44:52;24.30;99.90
16243;DHT22;11719;51.052;6.982;2023-06-26T12:47:28;24.30;99.90
16243;DHT22;11719;51.052;6.982;2023-06-26T12:49:56;24.40;99.90
16243;DHT22;11719;51.052;6.982;2023-06-26T12:52:23;24.30;99.90
16243;DHT22;11719;51.052;6.982;2023-06-26T12:54:53;24.30;99.90
16243;DHT22;11719;51.052;6.982;2023-06-26T12:57:20;24.30;99.30
16243;DHT22;11719;51.052;6.982;2023-06-26T12:59:45;24.30;99.60
16243;DHT22;11719;51.052;6.982;2023-06-26T13:02:11;24.20;99.90
16243;DHT22;11719;51.052;6.982;2023-06-26T13:04:37;24.30;98.90
16243;DHT22;11719;51.052;6.982;2023-06-26T13:07:07;24.40;99.90
16243;DHT22;11719;51.052;6.982;2023-06-26T13:09:34;24.50;97.60
16243;DHT22;11719;51.052;6.982;2023-06-26T13:12:01;24.60;97.60
16243;DHT22;11719;51.052;6.982;2023-06-26T13:14:29;24.70;94.80
16243;DHT22;11719;51.052;6.982;2023-06-26T13:16:55;24.60;96.50
16243;DHT22;11719;51.052;6.982;2023-06-26T13:19:21;24.60;94.10
16243;DHT22;11719;51.052;6.982;2023-06-26T13:21:47;24.60;95.00
16243;DHT22;11719;51.052;6.982;2023-06-26T13:24:13;24.60;94.60
16243;DHT22;11719;51.052;6.982;2023-06-26T13:26:39;24.60;95.50
16243;DHT22;11719;51.052;6.982;2023-06-26T13:29:05;24.60;95.40
16243;DHT22;11719;51.052;6.982;2023-06-26T13:31:31;24.60;96.00
16243;DHT22;11719;51.052;6.982;2023-06-26T13:34:02;24.60;94.50
16243;DHT22;11719;51.052;6.982;2023-06-26T13:36:29;24.50;94.40
16243;DHT22;11719;51.052;6.982;2023-06-26T13:38:55;24.40;94.30
16243;DHT22;11719;51.052;6.982;2023-06-26T13:41:24;24.40;94.80
16243;DHT22;11719;51.052;6.982;2023-06-26T13:43:51;24.60;93.30
16243;DHT22;11719;51.052;6.982;2023-06-26T13:46:17;24.50;95.80
16243;DHT22;11719;51.052;6.982;2023-06-26T13:48:44;24.40;94.00
16243;DHT22;11719;51.052;6.982;2023-06-26T13:51:10;24.50;93.30
16243;DHT22;11719;51.052;6.982;2023-06-26T13:53:36;24.50;93.30
16243;DHT22;11719;51.052;6.982;2023-06-26T13:56:02;24.40;91.50
16243;DHT22;11719;51.052;6.982;2023-06-26T13:58:28;24.40;90.70
16243;DHT22;11719;51.052;6.982;2023-06-26T14:00:57;24.30;92.90
16243;DHT22;11719;51.052;6.982;2023-06-26T14:03:24;24.30;89.30
16243;DHT22;11719;51.052;6.982;2023-06-26T14:05:51;24.30;91.70
16243;DHT22;11719;51.052;6.982;2023-06-26T14:08:17;24.40;91.20
16243;DHT22;11719;51.052;6.982;2023-06-26T14:10:42;24.40;88.80
16243;DHT22;11719;51.052;6.982;2023-06-26T14:13:08;24.50;89.60
16243;DHT22;11719;51.052;6.982;2023-06-26T14:15:34;24.50;91.40
16243;DHT22;11719;51.052;6.982;2023-06-26T14:18:01;24.60;92.30
16243;DHT22;11719;51.052;6.982;2023-06-26T14:20:28;24.60;90.80
16243;DHT22;11719;51.052;6.982;2023-06-26T14:22:54;24.60;92.40
16243;DHT22;11719;51.052;6.982;2023-06-26T14:25:19;24.60;89.50
16243;DHT22;11719;51.052;6.982;2023-06-26T14:27:45;24.60;90.20
16243;DHT22;11719;51.052;6.982;2023-06-26T14:30:11;24.60;87.60
16243;DHT22;11719;51.052;6.982;2023-06-26T14:32:37;24.60;88.70
16243;DHT22;11719;51.052;6.982;2023-06-26T14:35:03;24.60;89.80
16243;DHT22;11719;51.052;6.982;2023-06-26T14:37:30;24.50;89.70
16243;DHT22;11719;51.052;6.982;2023-06-26T14:39:57;24.50;92.60
16243;DHT22;11719;51.052;6.982;2023-06-26T14:42:24;24.50;91.20
16243;DHT22;11719;51.052;6.982;2023-06-26T14:44:50;24.60;91.20
16243;DHT22;11719;51.052;6.982;2023-06-26T14:47:17;24.50;91.10
16243;DHT22;11719;51.052;6.982;2023-06-26T14:49:43;24.50;92.70
16243;DHT22;11719;51.052;6.982;2023-06-26T14:52:09;24.40;92.10
16243;DHT22;11719;51.052;6.982;2023-06-26T14:54:35;24.40;90.90
16243;DHT22;11719;51.052;6.982;2023-06-26T14:57:04;24.40;90.40
16243;DHT22;11719;51.052;6.982;2023-06-26T14:59:31;24.30;93.10
16243;DHT22;11719;51.052;6.982;2023-06-26T15:01:57;24.30;91.50
16243;DHT22;11719;51.052;6.982;2023-06-26T15:04:23;24.30;90.60
16243;DHT22;11719;51.052;6.982;2023-06-26T15:06:49;24.30;90.10
16243;DHT22;11719;51.052;6.982;2023-06-26T15:09:15;24.30;91.00
16243;DHT22;11719;51.052;6.982;2023-06-26T15:11:40;24.20;90.60
16243;DHT22;11719;51.052;6.982;2023-06-26T15:14:06;24.30;90.80
16243;DHT22;11719;51.052;6.982;2023-06-26T15:16:32;24.20;93.20
16243;DHT22;11719;51.052;6.982;2023-06-26T15:18:58;24.20;92.30
16243;DHT22;11719;51.052;6.982;2023-06-26T15:21:24;24.20;93.70
16243;DHT22;11719;51.052;6.982;2023-06-26T15:23:50;24.20;92.10
16243;DHT22;11719;51.052;6.982;2023-06-26T15:26:16;24.20;93.10
16243;DHT22;11719;51.052;6.982;2023-06-26T15:28:42;24.20;92.30
16243;DHT22;11719;51.052;6.982;2023-06-26T15:31:07;24.10;92.10
16243;DHT22;11719;51.052;6.982;2023-06-26T15:33:33;24.10;91.00
16243;DHT22;11719;51.052;6.982;2023-06-26T15:36:00;24.10;92.00
16243;DHT22;11719;51.052;6.982;2023-06-26T15:38:28;24.00;92.80
16243;DHT22;11719;51.052;6.982;2023-06-26T15:40:54;24.00;92.50
16243;DHT22;11719;51.052;6.982;2023-06-26T15:43:20;24.00;92.60
16243;DHT22;11719;51.052;6.982;2023-06-26T15:45:46;24.00;91.40